Time;durP1;ratioP1;P1;durP2;ratioP2;P2;SDS_P1;SDS_P2;PMS_P1;PMS_P2;Temp;Humidity;BMP_temperature;BMP_pressure;BME280_temperature;BME280_humidity;BME280_pressure;Samples;Min_cycle;Max_cycle;Signal;HPM_P1;HPM_P2
2022/04/04 00:01:36;;;;;;;31.73;18.20;;;9.70;95.80;;;;;;5070771;28;20039;-64
2022/04/04 00:04:41;;;;;;;31.67;17.30;;;9.60;95.90;;;;;;5070010;28;20043;-64
2022/04/04 00:07:44;;;;;;;31.83;18.58;;;9.60;96.00;;;;;;5070539;28;20047;-64
2022/04/04 00:10:49;;;;;;;30.88;17.63;;;9.60;96.00;;;;;;5070946;28;20043;-64
2022/04/04 00:13:53;;;;;;;29.17;17.70;;;9.60;95.90;;;;;;5070481;28;20372;-64
2022/04/04 00:17:00;;;;;;;28.95;19.02;;;9.60;96.20;;;;;;5069892;28;20047;-64
2022/04/04 00:20:07;;;;;;;25.45;17.35;;;9.50;96.10;;;;;;5070754;28;20051;-64
2022/04/04 00:23:14;;;;;;;28.48;17.92;;;9.50;96.30;;;;;;5071066;28;20036;-65
2022/04/04 00:26:18;;;;;;;31.98;18.52;;;9.50;96.30;;;;;;5070102;28;20051;-65
2022/04/04 00:29:23;;;;;;;25.15;15.85;;;9.50;96.50;;;;;;5070780;28;20047;-65
2022/04/04 00:32:27;;;;;;;23.08;15.70;;;9.50;96.40;;;;;;5070719;28;20107;-64
2022/04/04 00:35:31;;;;;;;26.45;17.20;;;9.60;96.30;;;;;;5070570;28;20044;-65
2022/04/04 00:38:35;;;;;;;25.65;15.32;;;9.70;96.40;;;;;;5070565;28;20075;-64
2022/04/04 00:41:40;;;;;;;29.45;16.58;;;9.70;96.50;;;;;;5070631;28;20040;-64
2022/04/04 00:44:46;;;;;;;31.20;18.85;;;9.80;96.70;;;;;;5070678;28;20053;-64
2022/04/04 00:47:50;;;;;;;28.65;17.60;;;9.80;96.80;;;;;;5070469;28;20515;-64
2022/04/04 00:50:54;;;;;;;26.70;16.70;;;9.80;96.70;;;;;;5070438;28;20392;-64
2022/04/04 00:53:58;;;;;;;24.35;17.48;;;9.70;96.60;;;;;;5070680;28;20047;-64
2022/04/04 00:57:02;;;;;;;27.17;17.70;;;9.60;96.70;;;;;;5070227;28;20043;-64
2022/04/04 01:00:11;;;;;;;28.70;18.33;;;9.50;97.00;;;;;;5070712;28;20094;-65
2022/04/04 01:03:16;;;;;;;33.95;16.55;;;9.70;97.30;;;;;;5071656;28;20044;-64
2022/04/04 01:06:19;;;;;;;28.05;17.95;;;9.70;96.90;;;;;;5073889;28;20075;-64
2022/04/04 01:09:23;;;;;;;31.75;17.90;;;9.80;96.60;;;;;;5074153;28;20043;-64
2022/04/04 01:12:27;;;;;;;28.60;18.48;;;9.90;96.60;;;;;;5074138;28;20403;-64
2022/04/04 01:15:32;;;;;;;25.75;17.90;;;9.80;96.80;;;;;;5073943;28;20039;-64
2022/04/04 01:18:36;;;;;;;25.30;17.13;;;9.70;97.30;;;;;;5073719;28;20067;-65
2022/04/04 01:21:40;;;;;;;27.67;17.13;;;9.70;97.50;;;;;;5073567;28;20044;-64
2022/04/04 01:24:47;;;;;;;28.58;16.75;;;9.60;97.30;;;;;;5073985;28;20040;-64
2022/04/04 01:27:51;;;;;;;25.02;15.18;;;9.70;97.50;;;;;;5073742;28;20039;-65
2022/04/04 01:30:56;;;;;;;22.85;14.45;;;9.70;97.30;;;;;;5073607;28;20582;-64
2022/04/04 01:34:00;;;;;;;23.02;14.02;;;9.70;96.90;;;;;;5073700;28;20048;-64
2022/04/04 01:37:04;;;;;;;20.85;13.40;;;9.80;96.60;;;;;;5073479;28;20044;-65
2022/04/04 01:40:10;;;;;;;18.70;12.32;;;9.80;96.40;;;;;;5073245;28;20043;-65
2022/04/04 01:43:14;;;;;;;16.80;12.15;;;9.70;96.50;;;;;;5072414;28;20514;-65
2022/04/04 01:46:24;;;;;;;21.27;11.50;;;9.80;97.00;;;;;;5073275;28;20035;-64
2022/04/04 01:49:28;;;;;;;23.40;13.18;;;9.80;96.40;;;;;;5073262;28;20044;-64
2022/04/04 01:52:33;;;;;;;21.48;12.25;;;9.90;96.30;;;;;;5073061;28;20526;-64
2022/04/04 01:55:36;;;;;;;22.10;12.43;;;9.90;96.60;;;;;;5072959;28;20036;-64
2022/04/04 01:58:42;;;;;;;21.10;12.25;;;9.90;96.80;;;;;;5072918;28;20067;-65
2022/04/04 02:01:46;;;;;;;16.30;10.77;;;9.80;96.50;;;;;;5072979;28;20040;-64
2022/04/04 02:04:50;;;;;;;16.58;10.82;;;9.60;96.90;;;;;;5072642;28;20048;-64
2022/04/04 02:07:54;;;;;;;17.60;10.15;;;9.40;97.60;;;;;;5073121;28;20051;-64
2022/04/04 02:10:58;;;;;;;18.88;11.05;;;9.20;98.40;;;;;;5072891;28;20047;-64
2022/04/04 02:14:03;;;;;;;15.13;9.25;;;9.10;99.10;;;;;;5072582;28;20059;-64
2022/04/04 02:17:07;;;;;;;13.30;9.05;;;9.10;99.10;;;;;;5072545;28;20036;-64
2022/04/04 02:20:11;;;;;;;18.77;9.05;;;9.10;99.30;;;;;;5072587;28;20048;-64
2022/04/04 02:23:20;;;;;;;14.93;8.93;;;9.10;99.00;;;;;;5072612;28;20033;-64
2022/04/04 02:26:27;;;;;;;;;;;9.00;99.50;;;;;;5072909;28;20503;-64
2022/04/04 02:29:31;;;;;;;19.50;9.07;;;9.10;99.70;;;;;;5072370;28;20386;-64
2022/04/04 02:32:35;;;;;;;16.05;8.98;;;9.20;99.30;;;;;;5072267;28;20043;-64
2022/04/04 02:35:39;;;;;;;18.35;9.05;;;9.20;99.20;;;;;;5072366;28;20037;-64
2022/04/04 02:38:43;;;;;;;14.55;8.80;;;9.20;99.40;;;;;;5072061;28;20048;-64
2022/04/04 02:41:47;;;;;;;19.02;9.27;;;9.20;99.40;;;;;;5072350;28;20043;-64
2022/04/04 02:44:51;;;;;;;17.08;8.82;;;9.20;99.50;;;;;;5072247;28;20396;-64
2022/04/04 02:47:55;;;;;;;15.18;9.43;;;9.30;99.80;;;;;;5071767;28;20509;-64
2022/04/04 02:50:59;;;;;;;18.08;10.02;;;9.50;99.90;;;;;;5071792;28;20028;-63
2022/04/04 02:54:04;;;;;;;24.25;12.38;;;9.70;99.90;;;;;;5071742;28;20044;-64
2022/04/04 02:57:08;;;;;;;15.88;9.98;;;9.70;99.90;;;;;;5071481;28;20040;-62
2022/04/04 03:00:19;;;;;;;14.00;9.27;;;9.80;99.90;;;;;;5071750;28;20048;-64
2022/04/04 03:03:24;;;;;;;14.43;8.38;;;9.80;99.70;;;;;;5071473;28;20047;-65
2022/04/04 03:06:28;;;;;;;15.23;8.02;;;9.90;99.30;;;;;;5071610;28;20052;-66
2022/04/04 03:09:33;;;;;;;12.45;8.30;;;9.90;99.10;;;;;;5071753;28;20040;-64
2022/04/04 03:12:45;;;;;;;15.35;9.18;;;9.80;98.70;;;;;;5070780;28;20040;-64
2022/04/04 03:15:49;;;;;;;12.60;8.85;;;9.90;98.90;;;;;;5071506;28;20051;-64
2022/04/04 03:18:58;;;;;;;17.00;8.95;;;9.90;98.50;;;;;;5071420;28;20057;-64
2022/04/04 03:22:03;;;;;;;15.25;8.77;;;9.90;98.60;;;;;;5071682;28;20056;-64
2022/04/04 03:25:08;;;;;;;16.48;9.68;;;9.90;98.60;;;;;;5071088;28;20032;-65
2022/04/04 03:28:12;;;;;;;19.30;10.00;;;9.80;98.40;;;;;;5071324;28;20040;-64
2022/04/04 03:31:16;;;;;;;13.40;9.23;;;9.80;98.40;;;;;;5071419;28;20039;-65
2022/04/04 03:34:21;;;;;;;17.13;10.57;;;9.80;98.70;;;;;;5070578;28;20028;-65
2022/04/04 03:37:25;;;;;;;13.32;9.23;;;9.70;98.80;;;;;;5071308;28;20400;-64
2022/04/04 03:40:33;;;;;;;15.38;9.88;;;9.70;98.90;;;;;;5071515;28;20045;-64
2022/04/04 03:43:37;;;;;;;15.77;9.45;;;9.70;98.90;;;;;;5071027;28;20041;-65
2022/04/04 03:46:41;;;;;;;13.70;8.95;;;9.70;99.00;;;;;;5071224;28;20036;-65
2022/04/04 03:49:46;;;;;;;12.10;9.27;;;9.80;99.10;;;;;;5071362;28;20049;-65
2022/04/04 03:52:52;;;;;;;23.25;10.93;;;9.80;99.10;;;;;;5071265;28;20037;-65
2022/04/04 03:56:01;;;;;;;17.60;9.48;;;9.80;98.90;;;;;;5071134;28;20044;-64
2022/04/04 03:59:05;;;;;;;18.38;9.32;;;9.70;98.50;;;;;;5070856;28;20116;-64
2022/04/04 04:02:09;;;;;;;14.00;8.23;;;9.60;98.80;;;;;;5070992;28;20047;-64
2022/04/04 04:05:15;;;;;;;12.65;8.63;;;9.70;98.60;;;;;;5070760;28;20045;-64
2022/04/04 04:08:19;;;;;;;13.48;8.45;;;9.70;98.70;;;;;;5071167;28;20048;-64
2022/04/04 04:11:23;;;;;;;12.52;7.65;;;9.60;98.80;;;;;;5070945;28;20459;-64
2022/04/04 04:14:27;;;;;;;15.10;6.72;;;9.70;98.80;;;;;;5071096;28;20044;-65
2022/04/04 04:17:31;;;;;;;17.15;7.68;;;9.70;98.70;;;;;;5070727;28;20056;-64
2022/04/04 04:20:35;;;;;;;12.50;7.00;;;9.60;98.40;;;;;;5070620;28;20055;-64
2022/04/04 04:23:42;;;;;;;13.43;8.02;;;9.60;98.70;;;;;;5070205;28;20029;-64
2022/04/04 04:26:46;;;;;;;17.88;9.30;;;9.70;98.90;;;;;;5070667;28;20070;-64
2022/04/04 04:29:50;;;;;;;11.00;8.00;;;9.80;99.30;;;;;;5070575;28;20037;-64
2022/04/04 04:32:54;;;;;;;11.40;7.22;;;9.90;99.60;;;;;;5070797;28;20047;-64
2022/04/04 04:35:58;;;;;;;10.80;7.32;;;9.90;99.60;;;;;;5070531;28;20046;-64
2022/04/04 04:39:02;;;;;;;12.75;6.72;;;9.90;99.30;;;;;;5072996;28;20040;-64
2022/04/04 04:42:07;;;;;;;15.23;7.88;;;9.90;98.90;;;;;;5074534;28;20044;-64
2022/04/04 04:45:12;;;;;;;11.23;6.18;;;9.90;98.90;;;;;;5074203;28;20063;-64
2022/04/04 04:48:16;;;;;;;11.45;6.28;;;9.90;98.80;;;;;;5073505;28;20039;-64
2022/04/04 04:51:19;;;;;;;15.45;6.88;;;10.00;98.70;;;;;;5074454;28;20043;-64
2022/04/04 04:54:24;;;;;;;15.52;8.35;;;10.00;98.60;;;;;;5074068;28;20225;-64
2022/04/04 04:57:28;;;;;;;11.70;7.78;;;9.90;98.90;;;;;;5073981;28;20039;-64
2022/04/04 05:00:37;;;;;;;9.20;5.97;;;9.90;99.20;;;;;;5074410;28;20419;-64
2022/04/04 05:03:41;;;;;;;11.70;6.43;;;9.90;99.30;;;;;;5074242;28;20041;-64
2022/04/04 05:06:49;;;;;;;13.45;6.30;;;9.90;99.40;;;;;;5073635;28;20056;-64
2022/04/04 05:09:53;;;;;;;14.82;6.80;;;9.80;99.10;;;;;;5073932;28;20051;-64
2022/04/04 05:12:57;;;;;;;15.20;6.55;;;9.80;99.20;;;;;;5074403;28;20064;-65
2022/04/04 05:16:04;;;;;;;12.40;6.72;;;9.70;99.50;;;;;;5073728;28;20040;-65
2022/04/04 05:19:08;;;;;;;13.73;7.18;;;9.70;99.80;;;;;;5073268;28;20052;-64
2022/04/04 05:22:14;;;;;;;13.52;7.10;;;9.70;99.80;;;;;;5073716;28;20506;-65
2022/04/04 05:25:18;;;;;;;13.13;7.72;;;9.80;99.80;;;;;;5073448;28;20040;-65
2022/04/04 05:28:22;;;;;;;12.65;7.20;;;9.90;99.80;;;;;;5073656;28;20507;-64
2022/04/04 05:31:26;;;;;;;15.82;9.13;;;9.80;99.70;;;;;;5073393;28;20039;-64
2022/04/04 05:34:30;;;;;;;12.85;8.27;;;9.90;99.70;;;;;;5073533;28;20393;-64
2022/04/04 05:37:35;;;;;;;16.45;10.13;;;9.80;99.90;;;;;;5073169;28;20036;-64
2022/04/04 05:40:40;;;;;;;18.30;10.20;;;9.60;99.90;;;;;;5073319;28;20130;-62
2022/04/04 05:43:44;;;;;;;19.63;9.70;;;9.60;99.90;;;;;;5073209;28;20507;-62
2022/04/04 05:46:48;;;;;;;21.83;10.55;;;9.70;99.90;;;;;;5072859;28;20047;-62
2022/04/04 05:49:53;;;;;;;13.63;8.43;;;9.60;99.90;;;;;;5072553;28;20039;-62
2022/04/04 05:52:57;;;;;;;13.45;9.23;;;9.70;99.90;;;;;;5072945;28;20033;-63
2022/04/04 05:56:01;;;;;;;13.55;9.68;;;9.80;99.90;;;;;;5072915;28;20039;-61
2022/04/04 05:59:05;;;;;;;19.52;11.60;;;9.80;99.90;;;;;;5072892;28;20044;-62
2022/04/04 06:02:09;;;;;;;18.05;9.88;;;9.80;99.90;;;;;;5073012;28;20048;-62
2022/04/04 06:05:13;;;;;;;17.67;10.73;;;9.80;99.90;;;;;;5072758;28;20052;-62
2022/04/04 06:08:18;;;;;;;16.23;9.32;;;9.80;99.90;;;;;;5072951;28;20055;-62
2022/04/04 06:11:23;;;;;;;17.50;10.40;;;9.90;99.90;;;;;;5072394;28;20055;-62
2022/04/04 06:14:27;;;;;;;19.10;8.93;;;10.00;99.90;;;;;;5071456;28;20063;-62
2022/04/04 06:17:31;;;;;;;14.95;9.60;;;10.00;99.90;;;;;;5072478;28;20059;-63
2022/04/04 06:20:36;;;;;;;17.23;9.18;;;10.00;99.90;;;;;;5072232;28;20059;-62
2022/04/04 06:23:40;;;;;;;14.80;10.48;;;10.10;99.90;;;;;;5071803;28;20047;-64
2022/04/04 06:26:44;;;;;;;14.68;10.02;;;10.30;99.90;;;;;;5072143;28;20047;-62
2022/04/04 06:29:49;;;;;;;15.32;10.38;;;10.40;99.90;;;;;;5072261;28;20039;-62
2022/04/04 06:32:53;;;;;;;19.45;9.48;;;10.50;99.70;;;;;;5072363;28;20162;-64
2022/04/04 06:35:57;;;;;;;16.98;9.48;;;10.50;99.60;;;;;;5072298;28;20502;-61
2022/04/04 06:39:01;;;;;;;15.50;8.98;;;10.60;99.50;;;;;;5072117;28;20056;-61
2022/04/04 06:42:05;;;;;;;14.07;8.23;;;10.70;99.20;;;;;;5072095;28;20419;-61
2022/04/04 06:45:10;;;;;;;17.63;8.88;;;10.70;98.90;;;;;;5072130;28;20055;-61
2022/04/04 06:48:14;;;;;;;15.48;9.20;;;10.70;98.80;;;;;;5071939;28;20060;-60
2022/04/04 06:51:19;;;;;;;16.02;8.32;;;10.70;98.80;;;;;;5072110;28;20044;-60
2022/04/04 06:54:23;;;;;;;16.38;8.38;;;10.70;98.80;;;;;;5071954;28;20055;-61
2022/04/04 06:57:28;;;;;;;15.57;8.90;;;10.70;99.00;;;;;;5070697;28;20047;-61
2022/04/04 07:00:32;;;;;;;16.58;8.02;;;10.80;99.00;;;;;;5071428;28;20056;-61
2022/04/04 07:03:36;;;;;;;14.82;7.97;;;10.80;98.60;;;;;;5071807;28;20052;-61
2022/04/04 07:06:40;;;;;;;15.98;7.57;;;10.90;98.40;;;;;;5071489;28;20047;-61
2022/04/04 07:09:45;;;;;;;12.25;6.25;;;10.90;98.40;;;;;;5071788;28;20059;-62
2022/04/04 07:12:50;;;;;;;14.05;6.25;;;10.90;98.60;;;;;;5071533;28;20046;-61
2022/04/04 07:15:54;;;;;;;9.93;5.70;;;11.00;98.40;;;;;;5071663;28;20055;-62
2022/04/04 07:18:58;;;;;;;9.82;5.10;;;11.00;98.10;;;;;;5071147;28;20057;-62
2022/04/04 07:22:03;;;;;;;10.80;5.90;;;11.10;98.00;;;;;;5071590;28;20040;-62
2022/04/04 07:25:09;;;;;;;11.80;6.15;;;11.10;97.70;;;;;;5071586;28;20502;-62
2022/04/04 07:28:14;;;;;;;11.40;5.43;;;11.20;97.50;;;;;;5071007;28;20055;-62
2022/04/04 07:31:19;;;;;;;8.68;5.40;;;11.30;97.10;;;;;;5071102;28;20043;-62
2022/04/04 07:34:23;;;;;;;9.93;5.40;;;11.20;96.70;;;;;;5071397;28;20051;-61
2022/04/04 07:37:26;;;;;;;16.38;6.10;;;11.30;96.50;;;;;;5070479;28;20427;-61
2022/04/04 07:40:30;;;;;;;13.65;5.80;;;11.40;96.50;;;;;;5072264;28;20404;-61
2022/04/04 07:43:35;;;;;;;10.52;5.82;;;11.30;96.30;;;;;;5071341;28;20039;-61
2022/04/04 07:46:39;;;;;;;9.00;5.00;;;11.20;96.40;;;;;;5071056;28;20047;-60
2022/04/04 07:49:43;;;;;;;14.13;5.72;;;11.20;96.70;;;;;;5071119;28;20047;-60
2022/04/04 07:52:47;;;;;;;14.32;5.40;;;11.30;96.70;;;;;;5070749;28;20537;-61
2022/04/04 07:55:52;;;;;;;12.55;4.80;;;11.40;96.40;;;;;;5071094;28;20047;-61
2022/04/04 07:58:56;;;;;;;11.23;5.18;;;11.50;96.10;;;;;;5070924;28;20396;-61
2022/04/04 08:01:59;;;;;;;12.23;5.38;;;11.60;95.60;;;;;;5071267;28;20063;-60
2022/04/04 08:05:04;;;;;;;7.20;4.35;;;11.60;95.60;;;;;;5071150;28;20047;-60
2022/04/04 08:08:08;;;;;;;21.20;6.70;;;11.80;95.40;;;;;;5071132;28;20048;-62
2022/04/04 08:11:12;;;;;;;9.27;4.55;;;11.90;95.30;;;;;;5071856;28;20048;-61
2022/04/04 08:14:17;;;;;;;7.00;4.43;;;12.00;94.80;;;;;;5075594;28;20044;-61
2022/04/04 08:17:21;;;;;;;11.50;4.78;;;12.00;94.60;;;;;;5075491;28;20040;-61
2022/04/04 08:20:25;;;;;;;16.17;4.47;;;12.20;93.90;;;;;;5074027;28;20044;-61
2022/04/04 08:23:31;;;;;;;14.50;5.20;;;12.10;93.90;;;;;;5075073;28;20039;-61
2022/04/04 08:26:35;;;;;;;8.18;4.70;;;12.10;94.40;;;;;;5074480;28;20071;-61
2022/04/04 08:29:40;;;;;;;11.65;4.80;;;12.10;94.50;;;;;;5074538;28;20103;-61
2022/04/04 08:32:45;;;;;;;15.10;5.05;;;12.10;94.10;;;;;;5074863;28;20517;-62
2022/04/04 08:35:53;;;;;;;17.98;6.13;;;12.10;94.10;;;;;;5074362;28;20044;-61
2022/04/04 08:38:57;;;;;;;9.23;4.55;;;12.10;94.00;;;;;;5073972;28;20507;-62
2022/04/04 08:42:03;;;;;;;11.45;5.18;;;12.10;94.00;;;;;;5073846;28;20049;-62
2022/04/04 08:45:08;;;;;;;15.40;5.18;;;12.10;93.90;;;;;;5073645;28;20114;-62
2022/04/04 08:48:12;;;;;;;15.18;4.95;;;12.20;94.10;;;;;;5073866;28;20059;-62
2022/04/04 08:51:16;;;;;;;9.18;4.10;;;12.30;93.90;;;;;;5073834;28;20503;-62
2022/04/04 08:54:20;;;;;;;7.47;3.45;;;12.40;94.00;;;;;;5073899;28;20040;-62
2022/04/04 08:57:24;;;;;;;8.25;3.78;;;12.50;92.90;;;;;;5074397;28;20052;-62
2022/04/04 09:00:28;;;;;;;11.63;3.83;;;12.50;92.70;;;;;;5073998;28;20049;-63
2022/04/04 09:03:32;;;;;;;10.85;4.13;;;12.60;92.70;;;;;;5074110;28;20048;-61
2022/04/04 09:06:48;;;;;;;12.52;4.00;;;12.70;92.30;;;;;;5073030;28;20664;-62
2022/04/04 09:09:53;;;;;;;8.43;3.85;;;12.80;92.40;;;;;;5072934;28;20427;-62
2022/04/04 09:13:12;;;;;;;7.18;3.63;;;12.90;92.30;;;;;;5074010;28;20032;-62
2022/04/04 09:16:16;;;;;;;7.93;3.00;;;12.90;92.00;;;;;;5073438;28;20043;-63
2022/04/04 09:19:31;;;;;;;11.60;2.90;;;13.00;91.80;;;;;;5073350;28;20056;-62
2022/04/04 09:22:51;;;;;;;9.15;2.45;;;13.10;91.20;;;;;;5073488;28;20586;-63
2022/04/04 09:25:55;;;;;;;9.95;3.10;;;13.10;91.10;;;;;;5072720;28;20041;-62
2022/04/04 09:29:05;;;;;;;12.32;4.32;;;13.20;91.40;;;;;;5073902;28;20047;-62
2022/04/04 09:32:12;;;;;;;9.63;3.13;;;13.30;91.80;;;;;;5072908;28;20047;-62
2022/04/04 09:35:18;;;;;;;9.75;3.20;;;13.40;92.10;;;;;;5073341;28;20055;-62
2022/04/04 09:38:22;;;;;;;13.27;4.20;;;13.40;92.40;;;;;;5073193;28;20032;-62
2022/04/04 09:41:28;;;;;;;16.33;3.72;;;13.40;92.40;;;;;;5073157;28;20059;-61
2022/04/04 09:44:31;;;;;;;12.05;3.45;;;13.50;92.40;;;;;;5073133;28;20043;-62
2022/04/04 09:47:54;;;;;;;15.40;3.38;;;13.40;92.20;;;;;;5073139;28;20400;-62
2022/04/04 09:50:58;;;;;;;8.40;3.00;;;13.40;92.90;;;;;;5073330;28;20047;-62
2022/04/04 09:54:03;;;;;;;9.85;3.38;;;13.30;93.70;;;;;;5073119;28;20541;-62
2022/04/04 09:57:16;;;;;;;13.05;5.10;;;13.30;93.70;;;;;;5072908;28;20028;-62
2022/04/04 10:00:21;;;;;;;13.35;4.60;;;13.20;93.60;;;;;;5072894;28;20052;-62
2022/04/04 10:03:25;;;;;;;14.98;5.47;;;13.20;93.90;;;;;;5072696;28;20063;-62
2022/04/04 10:06:31;;;;;;;17.08;5.20;;;13.10;94.00;;;;;;5072624;28;20670;-62
2022/04/04 10:09:36;;;;;;;11.93;4.00;;;13.10;93.90;;;;;;5072526;28;20047;-62
2022/04/04 10:12:41;;;;;;;15.02;3.63;;;13.20;93.70;;;;;;5072816;28;20043;-62
2022/04/04 10:15:44;;;;;;;10.90;3.10;;;13.30;94.00;;;;;;5071646;28;20040;-62
2022/04/04 10:18:51;;;;;;;9.65;4.03;;;13.40;94.00;;;;;;5072367;28;20051;-62
2022/04/04 10:21:55;;;;;;;10.48;3.42;;;13.50;93.70;;;;;;5072390;28;20047;-62
2022/04/04 10:25:02;;;;;;;12.55;3.15;;;13.60;93.20;;;;;;5072121;28;20043;-62
2022/04/04 10:28:07;;;;;;;12.63;2.88;;;13.60;92.20;;;;;;5072299;28;20047;-62
2022/04/04 10:31:13;;;;;;;15.57;3.35;;;13.60;90.30;;;;;;5072399;28;20055;-62
2022/04/04 10:34:20;;;;;;;8.90;2.63;;;13.60;90.40;;;;;;5072205;28;20039;-62
2022/04/04 10:37:29;;;;;;;12.82;2.72;;;13.60;90.40;;;;;;5071546;28;20202;-62
2022/04/04 10:40:34;;;;;;;9.75;3.25;;;13.60;90.30;;;;;;5071843;28;20059;-62
2022/04/04 10:43:48;;;;;;;16.65;4.43;;;13.60;89.70;;;;;;5072298;28;20051;-62
2022/04/04 10:46:52;;;;;;;6.38;2.75;;;13.60;90.00;;;;;;5070858;28;20055;-62
2022/04/04 10:49:58;;;;;;;9.57;3.33;;;13.50;89.00;;;;;;5072038;28;20036;-62
2022/04/04 10:53:03;;;;;;;14.90;4.22;;;13.50;89.40;;;;;;5071876;28;20072;-62
2022/04/04 10:56:11;;;;;;;16.25;6.50;;;13.60;89.50;;;;;;5071696;28;20048;-63
2022/04/04 10:59:23;;;;;;;8.38;3.45;;;13.80;90.00;;;;;;5071524;28;20659;-62
2022/04/04 11:02:28;;;;;;;9.10;2.80;;;13.80;89.20;;;;;;5071664;28;20411;-62
2022/04/04 11:09:19;;;;;;;10.65;3.55;;;14.10;88.90;;;;;;5071635;28;20039;-62
2022/04/04 11:12:28;;;;;;;9.23;3.33;;;14.30;88.10;;;;;;5071322;28;20052;-62
2022/04/04 11:15:43;;;;;;;11.30;3.53;;;14.30;87.50;;;;;;5070680;28;20043;-62
2022/04/04 11:18:52;;;;;;;11.30;3.33;;;14.30;87.50;;;;;;5071321;28;20051;-62
2022/04/04 11:21:57;;;;;;;9.32;2.75;;;14.30;86.70;;;;;;5070633;28;20051;-62
2022/04/04 11:25:05;;;;;;;9.60;3.03;;;14.40;85.80;;;;;;5071247;28;20037;-62
2022/04/04 11:28:10;;;;;;;13.18;3.00;;;14.40;84.80;;;;;;5071183;28;20044;-62
2022/04/04 11:31:17;;;;;;;13.00;3.67;;;14.40;84.60;;;;;;5071008;28;20035;-61
2022/04/04 11:34:23;;;;;;;9.57;3.03;;;14.40;84.10;;;;;;5070922;28;20047;-61
2022/04/04 11:37:29;;;;;;;10.45;3.40;;;14.30;82.70;;;;;;5071256;28;20039;-61
2022/04/04 11:40:37;;;;;;;10.70;3.60;;;14.20;83.00;;;;;;5071079;28;20059;-61
2022/04/04 11:43:48;;;;;;;8.00;3.40;;;14.10;82.60;;;;;;5070118;28;20043;-61
2022/04/04 11:47:09;;;;;;;11.07;3.10;;;14.10;84.20;;;;;;5071060;28;20495;-62
2022/04/04 11:50:14;;;;;;;9.88;3.28;;;14.30;84.90;;;;;;5070931;28;20051;-62
2022/04/04 11:53:25;;;;;;;8.30;3.00;;;14.40;84.60;;;;;;5070668;28;20032;-62
2022/04/04 11:56:29;;;;;;;8.10;3.10;;;14.50;83.80;;;;;;5070845;28;20495;-62
2022/04/04 11:59:49;;;;;;;13.48;3.05;;;14.70;83.10;;;;;;5070797;28;20044;-62
2022/04/04 12:02:53;;;;;;;9.98;3.05;;;14.80;82.60;;;;;;5070783;28;20076;-62
2022/04/04 12:05:58;;;;;;;9.82;3.60;;;14.80;82.90;;;;;;5070596;28;20051;-62
2022/04/04 12:09:07;;;;;;;12.60;3.65;;;14.90;82.40;;;;;;5070862;28;20059;-62
2022/04/04 12:12:13;;;;;;;14.73;4.72;;;14.90;82.00;;;;;;5070799;28;20051;-63
2022/04/04 12:15:26;;;;;;;12.02;4.13;;;14.90;82.20;;;;;;5070772;28;20055;-63
2022/04/04 12:18:30;;;;;;;12.25;3.78;;;14.80;82.10;;;;;;5070975;28;20040;-63
2022/04/04 12:21:34;;;;;;;9.65;3.40;;;14.80;82.90;;;;;;5070986;28;20052;-63
2022/04/04 12:24:55;;;;;;;11.77;4.20;;;14.80;83.70;;;;;;5070719;28;20041;-63
2022/04/04 12:28:00;;;;;;;12.48;4.10;;;14.90;83.60;;;;;;5070489;28;20051;-63
2022/04/04 12:31:19;;;;;;;10.88;3.70;;;14.90;81.30;;;;;;5070507;28;20044;-63
2022/04/04 12:34:24;;;;;;;17.15;4.70;;;14.80;80.90;;;;;;5070385;28;20411;-64
2022/04/04 12:37:32;;;;;;;15.48;5.45;;;14.70;81.10;;;;;;5070568;28;20044;-65
2022/04/04 12:40:39;;;;;;;13.60;4.75;;;14.60;82.30;;;;;;5070341;28;20048;-65
2022/04/04 12:43:58;;;;;;;8.82;4.20;;;14.60;81.30;;;;;;5070231;28;20063;-65
2022/04/04 12:47:09;;;;;;;14.68;4.85;;;14.60;80.00;;;;;;5070660;28;20040;-63
2022/04/04 12:50:15;;;;;;;10.18;4.57;;;14.60;81.10;;;;;;5070558;28;20193;-65
2022/04/04 12:53:18;;;;;;;8.65;3.78;;;14.60;81.10;;;;;;5070429;28;20048;-64
2022/04/04 12:56:23;;;;;;;9.15;3.67;;;14.70;81.60;;;;;;5069293;28;20048;-64
2022/04/04 12:59:28;;;;;;;11.02;4.40;;;14.80;81.00;;;;;;5071477;28;20399;-63
2022/04/04 13:02:34;;;;;;;9.10;3.95;;;14.80;80.70;;;;;;5074039;28;20036;-64
2022/04/04 13:05:47;;;;;;;10.38;4.82;;;15.00;81.40;;;;;;5073687;28;20046;-64
2022/04/04 13:08:57;;;;;;;16.63;4.53;;;15.00;79.40;;;;;;5073187;28;20048;-64
2022/04/04 13:12:02;;;;;;;10.20;3.75;;;14.90;79.00;;;;;;5073624;28;20043;-63
2022/04/04 13:15:06;;;;;;;15.80;5.13;;;14.80;78.60;;;;;;5073611;28;20506;-62
2022/04/04 13:18:10;;;;;;;17.50;4.70;;;14.90;78.70;;;;;;5074036;28;20051;-63
2022/04/04 13:21:15;;;;;;;14.35;4.43;;;14.90;78.20;;;;;;5073379;28;20055;-65
2022/04/04 13:24:21;;;;;;;10.20;4.32;;;15.00;78.60;;;;;;5073722;28;20048;-64
2022/04/04 13:27:24;;;;;;;8.43;3.67;;;15.10;78.80;;;;;;5073036;28;20474;-62
2022/04/04 13:30:28;;;;;;;8.80;3.67;;;15.20;78.50;;;;;;5073042;28;20515;-63
2022/04/04 13:33:33;;;;;;;10.63;3.78;;;15.30;78.90;;;;;;5072809;28;20051;-63
2022/04/04 13:36:38;;;;;;;12.88;3.72;;;15.30;79.10;;;;;;5073286;28;20052;-63
2022/04/04 13:39:42;;;;;;;11.30;3.40;;;15.30;77.80;;;;;;5073215;28;20599;-63
2022/04/04 13:42:46;;;;;;;11.80;3.63;;;15.30;77.70;;;;;;5073487;28;20052;-63
2022/04/04 13:45:50;;;;;;;13.30;4.03;;;15.40;79.40;;;;;;5073023;28;20039;-63
2022/04/04 13:48:56;;;;;;;7.53;3.22;;;15.40;78.90;;;;;;5073341;28;20122;-63
2022/04/04 13:52:01;;;;;;;13.23;4.13;;;15.50;78.80;;;;;;5072492;28;20044;-62
2022/04/04 13:55:08;;;;;;;12.13;4.25;;;15.50;78.60;;;;;;5072910;28;20043;-63
2022/04/04 13:58:13;;;;;;;12.18;4.20;;;15.40;77.30;;;;;;5072825;28;20040;-62
2022/04/04 14:01:18;;;;;;;14.00;4.55;;;15.40;77.30;;;;;;5072671;28;20047;-63
2022/04/04 14:04:23;;;;;;;8.57;3.50;;;15.40;78.70;;;;;;5072823;28;20612;-62
2022/04/04 14:07:27;;;;;;;8.57;3.25;;;15.40;79.20;;;;;;5072571;28;20044;-63
2022/04/04 14:10:31;;;;;;;9.50;3.72;;;15.40;78.60;;;;;;5072714;28;20039;-62
2022/04/04 14:13:42;;;;;;;14.15;3.40;;;15.40;78.90;;;;;;5072583;28;20044;-63
2022/04/04 14:16:49;;;;;;;9.48;3.60;;;15.40;78.10;;;;;;5072791;28;20059;-63
2022/04/04 14:19:53;;;;;;;13.20;4.20;;;15.40;77.80;;;;;;5072251;28;20048;-63
2022/04/04 14:22:57;;;;;;;11.75;3.88;;;15.40;78.00;;;;;;5072636;28;20052;-63
2022/04/04 14:26:01;;;;;;;12.77;3.72;;;15.40;77.60;;;;;;5072683;28;20048;-63
2022/04/04 14:29:05;;;;;;;9.38;3.60;;;15.40;78.20;;;;;;5072416;28;20486;-63
2022/04/04 14:32:10;;;;;;;11.57;4.00;;;15.40;78.70;;;;;;5072213;28;20570;-63
2022/04/04 14:35:15;;;;;;;10.45;3.67;;;15.40;78.80;;;;;;5071054;28;20123;-63
2022/04/04 14:38:20;;;;;;;9.35;3.42;;;15.40;79.70;;;;;;5071852;28;20047;-63
2022/04/04 14:41:24;;;;;;;8.75;3.38;;;15.50;79.90;;;;;;5071711;28;20056;-64
2022/04/04 14:44:28;;;;;;;9.85;3.35;;;15.50;79.90;;;;;;5071757;28;20037;-63
2022/04/04 14:47:32;;;;;;;11.48;3.95;;;15.50;79.80;;;;;;5071846;28;20036;-64
2022/04/04 14:50:39;;;;;;;10.77;3.78;;;15.50;79.80;;;;;;5071842;28;20044;-61
2022/04/04 14:53:44;;;;;;;13.73;3.80;;;15.60;79.40;;;;;;5071918;28;20056;-64
2022/04/04 14:56:49;;;;;;;14.25;4.75;;;15.50;78.70;;;;;;5072164;28;20060;-64
2022/04/04 14:59:53;;;;;;;14.73;4.45;;;15.50;78.50;;;;;;5071827;28;20048;-61
2022/04/04 15:02:57;;;;;;;13.82;4.75;;;15.40;78.00;;;;;;5071963;28;20526;-62
2022/04/04 15:06:01;;;;;;;20.50;6.68;;;15.40;77.90;;;;;;5071531;28;20036;-65
2022/04/04 15:09:05;;;;;;;11.70;4.47;;;15.30;78.30;;;;;;5071854;28;20063;-64
2022/04/04 15:12:12;;;;;;;10.32;4.45;;;15.30;79.50;;;;;;5071432;28;20047;-68
2022/04/04 15:15:17;;;;;;;14.98;5.43;;;15.30;79.90;;;;;;5071184;28;20044;-67
2022/04/04 15:18:21;;;;;;;15.50;4.45;;;15.30;80.60;;;;;;5071446;28;20043;-63
2022/04/04 15:21:29;;;;;;;17.23;5.10;;;15.30;79.60;;;;;;5070654;28;20060;-64
2022/04/04 15:24:33;;;;;;;15.35;5.28;;;15.30;79.80;;;;;;5071229;28;20039;-63
2022/04/04 15:27:37;;;;;;;14.18;4.57;;;15.30;80.40;;;;;;5071291;28;20511;-63
2022/04/04 15:30:42;;;;;;;10.90;3.92;;;15.30;79.80;;;;;;5071129;28;20065;-65
2022/04/04 15:33:47;;;;;;;9.48;4.00;;;15.30;79.30;;;;;;5071254;28;20052;-64
2022/04/04 15:36:55;;;;;;;11.40;4.35;;;15.30;78.30;;;;;;5071150;28;20032;-64
2022/04/04 15:39:59;;;;;;;16.58;4.25;;;15.30;78.70;;;;;;5070965;28;20407;-65
2022/04/04 15:43:04;;;;;;;15.55;5.30;;;15.30;79.40;;;;;;5071313;28;20059;-64
2022/04/04 15:46:14;;;;;;;17.05;4.00;;;15.30;80.10;;;;;;5071169;28;20055;-62
2022/04/04 15:49:20;;;;;;;16.98;4.18;;;15.30;78.70;;;;;;5070911;28;20048;-63
2022/04/04 15:52:24;;;;;;;14.18;4.03;;;15.20;78.20;;;;;;5071125;28;20063;-62
2022/04/04 15:55:28;;;;;;;9.68;4.43;;;15.30;79.60;;;;;;5070695;28;20044;-63
2022/04/04 15:58:32;;;;;;;10.85;4.40;;;15.30;81.30;;;;;;5070958;28;20055;-62
2022/04/04 16:01:36;;;;;;;10.48;4.00;;;15.20;80.30;;;;;;5070398;28;20059;-63